Time;durP1;ratioP1;P1;durP2;ratioP2;P2;SDS_P1;SDS_P2;PMS_P1;PMS_P2;Temp;Humidity;BMP_temperature;BMP_pressure;BME280_temperature;BME280_humidity;BME280_pressure;Samples;Min_cycle;Max_cycle;Signal;HPM_P1;HPM_P2
2020/12/26 00:01:26;;;;;;;3.92;3.13;;;2.20;99.90;;;;;;5029706;28;20372;-85
2020/12/26 00:03:53;;;;;;;3.15;2.60;;;2.20;99.90;;;;;;5034792;28;20247;-86
2020/12/26 00:06:21;;;;;;;4.97;3.10;;;2.10;99.90;;;;;;5032436;28;20267;-85
2020/12/26 00:08:55;;;;;;;6.05;2.83;;;2.20;99.90;;;;;;5037622;28;20200;-84
2020/12/26 00:11:31;;;;;;;2.97;2.45;;;2.20;99.90;;;;;;5036262;28;20248;-85
2020/12/26 00:13:59;;;;;;;3.40;2.53;;;2.00;99.90;;;;;;5037357;28;20189;-85
2020/12/26 00:16:26;;;;;;;6.20;3.38;;;2.10;99.90;;;;;;5037860;28;20239;-84
2020/12/26 00:18:56;;;;;;;5.05;2.78;;;2.10;99.90;;;;;;5035556;28;20196;-85
2020/12/26 00:21:26;;;;;;;6.30;3.17;;;2.10;99.90;;;;;;5038787;28;20209;-83
2020/12/26 00:23:52;;;;;;;5.00;3.17;;;2.20;99.90;;;;;;5038944;28;20244;-84
2020/12/26 00:26:24;;;;;;;5.78;3.28;;;2.10;99.90;;;;;;5039072;28;20220;-84
2020/12/26 00:28:50;;;;;;;6.13;3.50;;;2.20;99.90;;;;;;5038745;28;20215;-86
2020/12/26 00:31:33;;;;;;;5.03;2.45;;;2.10;99.90;;;;;;5037747;28;20220;-86
2020/12/26 00:34:06;;;;;;;4.05;2.95;;;2.10;99.90;;;;;;5033791;28;20188;-85
2020/12/26 00:36:34;;;;;;;4.80;3.40;;;2.10;99.90;;;;;;5030872;28;20250;-85
2020/12/26 00:39:01;;;;;;;5.45;2.67;;;2.10;99.90;;;;;;5026269;28;20208;-85
2020/12/26 00:41:33;;;;;;;9.32;3.33;;;2.10;99.90;;;;;;5024869;28;20227;-84
2020/12/26 00:44:00;;;;;;;4.90;2.90;;;2.20;99.90;;;;;;5023364;28;20315;-86
2020/12/26 00:46:26;;;;;;;16.33;6.53;;;2.10;99.90;;;;;;5022260;28;20220;-86
2020/12/26 00:48:55;;;;;;;5.55;2.92;;;2.10;99.90;;;;;;5022519;28;20214;-85
2020/12/26 00:51:22;;;;;;;5.53;2.58;;;2.10;99.90;;;;;;5022860;28;20232;-85
2020/12/26 00:53:53;;;;;;;4.88;2.88;;;2.20;99.90;;;;;;5021096;28;20546;-86
2020/12/26 00:56:19;;;;;;;8.13;3.00;;;2.10;99.90;;;;;;5022751;28;20628;-86
2020/12/26 00:58:55;;;;;;;5.35;2.90;;;2.10;99.90;;;;;;5022790;28;20255;-85
2020/12/26 01:01:21;;;;;;;4.03;2.90;;;2.00;99.90;;;;;;5022327;28;20227;-86
2020/12/26 01:03:48;;;;;;;6.20;3.05;;;2.10;99.90;;;;;;5020427;28;20223;-86
2020/12/26 01:06:15;;;;;;;4.63;3.08;;;2.10;99.90;;;;;;5020605;28;20204;-85
2020/12/26 01:08:45;;;;;;;4.65;2.75;;;2.10;99.90;;;;;;5021194;28;20204;-85
2020/12/26 01:11:13;;;;;;;6.95;3.42;;;2.20;99.90;;;;;;5022509;28;20228;-85
2020/12/26 01:13:43;;;;;;;6.78;2.88;;;2.30;99.90;;;;;;5021560;28;20200;-86
2020/12/26 01:16:11;;;;;;;5.55;2.65;;;2.10;99.90;;;;;;5021762;28;20303;-85
2020/12/26 01:18:37;;;;;;;6.93;3.15;;;2.10;99.90;;;;;;5020976;28;20204;-86
2020/12/26 01:21:04;;;;;;;4.53;3.75;;;2.00;99.90;;;;;;5021787;28;20230;-85
2020/12/26 01:23:31;;;;;;;6.28;3.85;;;2.00;99.90;;;;;;5022498;28;20251;-86
2020/12/26 01:25:58;;;;;;;5.70;3.30;;;2.00;99.90;;;;;;5021420;28;20231;-86
2020/12/26 01:28:26;;;;;;;4.35;3.40;;;2.00;99.90;;;;;;5020433;28;20237;-86
2020/12/26 01:30:52;;;;;;;7.32;4.13;;;2.00;99.90;;;;;;5020567;28;20224;-86
2020/12/26 01:33:19;;;;;;;12.32;3.47;;;2.00;99.90;;;;;;5020881;28;20264;-86
2020/12/26 01:35:45;;;;;;;4.80;2.95;;;1.90;99.90;;;;;;5021561;28;20291;-86
2020/12/26 01:38:11;;;;;;;3.75;2.60;;;1.90;99.90;;;;;;5024368;28;20211;-84
2020/12/26 01:40:38;;;;;;;3.30;3.00;;;1.90;99.90;;;;;;5021933;28;20243;-85
2020/12/26 01:43:05;;;;;;;5.63;3.20;;;2.00;99.90;;;;;;5022323;28;20559;-85
2020/12/26 01:45:32;;;;;;;6.15;3.72;;;2.00;99.90;;;;;;5021313;28;20295;-85
2020/12/26 01:47:58;;;;;;;5.18;3.13;;;2.00;99.90;;;;;;5020846;28;20276;-86
2020/12/26 01:50:24;;;;;;;5.13;3.28;;;2.00;99.90;;;;;;5021558;28;20232;-85
2020/12/26 01:52:53;;;;;;;5.93;2.97;;;1.90;99.90;;;;;;5022245;28;20238;-85
2020/12/26 01:55:20;;;;;;;5.38;3.20;;;1.90;99.90;;;;;;5020832;28;20205;-85
2020/12/26 01:57:51;;;;;;;6.05;3.88;;;1.90;99.90;;;;;;5021086;28;20204;-86
2020/12/26 02:00:19;;;;;;;6.78;3.00;;;1.90;99.90;;;;;;5021076;28;20674;-86
2020/12/26 02:02:45;;;;;;;6.30;3.60;;;1.90;99.90;;;;;;5021454;28;20554;-85
2020/12/26 02:05:12;;;;;;;6.82;3.22;;;1.80;99.90;;;;;;5023270;28;20224;-85
2020/12/26 02:07:39;;;;;;;3.08;2.78;;;1.90;99.90;;;;;;5024126;28;20215;-86
2020/12/26 02:10:07;;;;;;;3.75;2.80;;;1.80;99.90;;;;;;5024427;28;20209;-86
2020/12/26 02:12:33;;;;;;;4.70;2.85;;;1.80;99.90;;;;;;5024367;28;20204;-85
2020/12/26 02:14:59;;;;;;;4.22;3.70;;;1.90;99.90;;;;;;5024722;28;20287;-86
2020/12/26 02:17:28;;;;;;;3.35;2.70;;;1.80;99.90;;;;;;5023993;28;20239;-86
2020/12/26 02:19:54;;;;;;;3.17;2.88;;;1.80;99.90;;;;;;5024674;28;20208;-85
2020/12/26 02:22:21;;;;;;;9.52;2.72;;;1.80;99.90;;;;;;5041925;22;20315;-80
2020/12/26 02:24:48;;;;;;;4.70;3.10;;;1.90;99.90;;;;;;5017447;28;20224;-80
2020/12/26 02:27:14;;;;;;;4.68;2.92;;;1.80;99.90;;;;;;5018233;28;20773;-82
2020/12/26 02:29:41;;;;;;;2.50;2.30;;;1.80;99.90;;;;;;5018446;28;20311;-80
2020/12/26 02:32:07;;;;;;;5.68;3.30;;;1.80;99.90;;;;;;5018124;28;20730;-81
2020/12/26 02:34:34;;;;;;;3.08;2.70;;;1.90;99.90;;;;;;5018283;28;20643;-80
2020/12/26 02:37:00;;;;;;;3.70;2.75;;;1.90;99.90;;;;;;5018443;28;20196;-80
2020/12/26 02:39:26;;;;;;;4.10;3.00;;;1.70;99.90;;;;;;5018505;28;20232;-80
2020/12/26 02:41:53;;;;;;;3.40;2.80;;;1.70;99.90;;;;;;5018575;28;20312;-81
2020/12/26 02:44:20;;;;;;;7.45;2.80;;;1.70;99.90;;;;;;5018530;28;20220;-80
2020/12/26 02:46:49;;;;;;;2.83;2.58;;;1.70;99.90;;;;;;5018053;28;20282;-80
2020/12/26 02:49:15;;;;;;;2.47;2.00;;;1.60;99.90;;;;;;5018066;28;20247;-80
2020/12/26 02:51:42;;;;;;;7.57;2.90;;;1.60;99.90;;;;;;5017930;28;20226;-81
2020/12/26 02:54:11;;;;;;;2.97;2.67;;;1.70;99.90;;;;;;5017920;28;20296;-80
2020/12/26 02:56:38;;;;;;;6.57;2.67;;;1.70;99.90;;;;;;5017400;28;20259;-81
2020/12/26 02:59:06;;;;;;;5.65;2.67;;;1.70;99.90;;;;;;5018016;28;20204;-82
2020/12/26 03:01:32;;;;;;;2.85;2.20;;;1.80;99.90;;;;;;5018159;28;20327;-81
2020/12/26 03:03:59;;;;;;;4.97;2.72;;;1.80;99.90;;;;;;5017458;28;20223;-81
2020/12/26 03:06:25;;;;;;;5.43;2.85;;;1.80;99.90;;;;;;5017425;28;20192;-81
2020/12/26 03:08:51;;;;;;;2.45;2.25;;;1.80;99.90;;;;;;5017247;28;20317;-80
2020/12/26 03:11:18;;;;;;;3.53;2.42;;;1.70;99.90;;;;;;5017723;28;20331;-80
2020/12/26 03:13:44;;;;;;;4.00;2.40;;;1.80;99.90;;;;;;5017844;28;20204;-81
2020/12/26 03:16:11;;;;;;;4.03;2.47;;;1.80;99.90;;;;;;5016695;28;20711;-81
2020/12/26 03:18:37;;;;;;;3.05;2.25;;;1.70;99.90;;;;;;5018038;28;20218;-80
2020/12/26 03:21:03;;;;;;;4.07;2.10;;;1.70;99.90;;;;;;5016818;28;20266;-81
2020/12/26 03:23:30;;;;;;;4.22;2.50;;;1.70;99.90;;;;;;5028713;28;20235;-80
2020/12/26 03:25:56;;;;;;;2.97;2.55;;;1.60;99.90;;;;;;5020289;28;20239;-80
2020/12/26 03:28:22;;;;;;;6.50;2.20;;;1.60;99.90;;;;;;5017111;28;20743;-81
2020/12/26 03:30:49;;;;;;;3.58;2.15;;;1.60;99.90;;;;;;5016942;28;20220;-81
2020/12/26 03:33:16;;;;;;;3.35;2.70;;;1.60;99.90;;;;;;5017239;28;20215;-81
2020/12/26 03:35:42;;;;;;;6.03;2.80;;;1.60;99.90;;;;;;5016913;28;20691;-80
2020/12/26 03:38:10;;;;;;;6.50;2.70;;;1.60;99.90;;;;;;5023131;28;20211;-79
2020/12/26 03:40:37;;;;;;;4.07;2.35;;;1.70;99.90;;;;;;5020914;28;20313;-80
2020/12/26 03:43:04;;;;;;;2.40;1.95;;;1.60;99.90;;;;;;5028593;28;20228;-80
2020/12/26 03:45:30;;;;;;;2.08;1.92;;;1.60;99.90;;;;;;5022021;28;20224;-80
2020/12/26 03:47:56;;;;;;;2.67;2.20;;;1.60;99.90;;;;;;5017968;28;20291;-81
2020/12/26 03:50:23;;;;;;;5.20;2.35;;;1.60;99.90;;;;;;5017906;28;20212;-81
2020/12/26 03:52:50;;;;;;;3.40;2.20;;;1.60;99.90;;;;;;5017951;28;20301;-81
2020/12/26 03:55:16;;;;;;;2.53;2.10;;;1.70;99.90;;;;;;5016660;28;20200;-81
2020/12/26 03:57:42;;;;;;;3.28;2.10;;;1.60;99.90;;;;;;5016450;28;20209;-81
2020/12/26 04:00:08;;;;;;;5.25;2.90;;;1.60;99.90;;;;;;5015975;28;20676;-81
2020/12/26 04:02:35;;;;;;;5.72;2.13;;;1.60;99.90;;;;;;5016866;28;20647;-81
2020/12/26 04:05:01;;;;;;;4.60;2.35;;;1.70;99.90;;;;;;5017348;28;20316;-80
2020/12/26 04:07:28;;;;;;;4.15;1.98;;;1.70;99.90;;;;;;5017082;28;20209;-80
2020/12/26 04:09:54;;;;;;;3.47;1.95;;;1.60;99.90;;;;;;5016564;28;20683;-80
2020/12/26 04:12:21;;;;;;;4.70;2.58;;;1.70;99.90;;;;;;5015999;28;20232;-80
2020/12/26 04:14:47;;;;;;;2.20;1.92;;;1.70;99.90;;;;;;5017145;28;20254;-80
2020/12/26 04:17:13;;;;;;;2.10;1.90;;;1.70;99.90;;;;;;5027904;28;20296;-80
2020/12/26 04:19:40;;;;;;;2.63;1.98;;;1.60;99.90;;;;;;5028964;28;20208;-80
2020/12/26 04:22:06;;;;;;;3.97;2.13;;;1.60;99.90;;;;;;5029577;28;20232;-80
2020/12/26 04:24:33;;;;;;;2.08;1.75;;;1.60;99.90;;;;;;5030417;28;20292;-80
2020/12/26 04:26:59;;;;;;;2.10;1.92;;;1.50;99.90;;;;;;5028633;28;20303;-80
2020/12/26 04:29:26;;;;;;;3.53;1.80;;;1.60;99.90;;;;;;5026054;28;20235;-80
2020/12/26 04:31:52;;;;;;;2.40;2.20;;;1.60;99.90;;;;;;5022269;28;20731;-80
2020/12/26 04:34:19;;;;;;;5.32;2.40;;;1.60;99.90;;;;;;5022592;28;20254;-80
2020/12/26 04:36:45;;;;;;;3.97;2.40;;;1.80;99.90;;;;;;5021640;28;20200;-80
2020/12/26 04:39:12;;;;;;;7.05;2.40;;;1.70;99.90;;;;;;5023638;28;20276;-80
2020/12/26 04:41:39;;;;;;;3.30;1.95;;;1.70;99.90;;;;;;5025729;28;20256;-81
2020/12/26 04:44:07;;;;;;;2.47;2.28;;;1.70;99.90;;;;;;5023641;28;20224;-80
2020/12/26 04:46:35;;;;;;;1.88;1.70;;;1.60;99.90;;;;;;5021866;28;20211;-80
2020/12/26 04:49:05;;;;;;;2.50;2.30;;;1.60;99.90;;;;;;5019537;28;20572;-80
2020/12/26 04:51:34;;;;;;;4.45;2.08;;;1.60;99.90;;;;;;5026921;28;20323;-81
2020/12/26 04:54:09;;;;;;;3.55;2.10;;;1.70;99.90;;;;;;5019180;28;20303;-81
2020/12/26 04:56:41;;;;;;;2.25;2.15;;;1.60;99.90;;;;;;5017722;28;20190;-80
2020/12/26 04:59:09;;;;;;;3.05;1.88;;;1.60;99.90;;;;;;5016616;28;20242;-80
2020/12/26 05:01:37;;;;;;;6.18;2.50;;;1.70;99.90;;;;;;5015599;28;20622;-82
2020/12/26 05:04:04;;;;;;;2.80;1.95;;;1.70;99.90;;;;;;5015760;28;20278;-80
2020/12/26 05:06:31;;;;;;;3.08;2.88;;;1.70;99.90;;;;;;5015231;28;20267;-80
2020/12/26 05:09:00;;;;;;;2.30;1.77;;;1.70;99.90;;;;;;5015365;28;20259;-80
2020/12/26 05:11:31;;;;;;;4.47;2.30;;;1.60;99.90;;;;;;5016206;28;20228;-81
2020/12/26 05:14:03;;;;;;;2.60;2.40;;;1.70;99.90;;;;;;5016347;28;20220;-81
2020/12/26 05:16:32;;;;;;;2.72;1.83;;;1.60;99.90;;;;;;5016018;28;20195;-81
2020/12/26 05:18:58;;;;;;;3.17;1.85;;;1.50;99.90;;;;;;5015552;28;20672;-81
2020/12/26 05:21:25;;;;;;;3.83;2.13;;;1.50;99.90;;;;;;5015419;28;20295;-81
2020/12/26 05:24:05;;;;;;;4.30;2.40;;;1.60;99.90;;;;;;5015347;28;20278;-82
2020/12/26 05:26:38;;;;;;;3.72;2.30;;;1.60;99.90;;;;;;5015505;28;20276;-81
2020/12/26 05:29:06;;;;;;;2.30;1.70;;;1.50;99.90;;;;;;5015681;28;20184;-80
2020/12/26 05:32:13;;;;;;;2.53;2.00;;;1.50;99.90;;;;;;5015273;28;20323;-81
2020/12/26 05:34:39;;;;;;;7.70;2.65;;;1.40;99.90;;;;;;4955051;29;20209;-81
2020/12/26 05:37:06;;;;;;;2.75;1.90;;;1.30;99.90;;;;;;4955040;29;20206;-80
2020/12/26 05:39:34;;;;;;;2.80;2.17;;;1.30;99.90;;;;;;4986328;28;20208;-80
2020/12/26 05:42:00;;;;;;;2.42;2.22;;;1.20;99.90;;;;;;5019523;28;20232;-81
2020/12/26 05:44:30;;;;;;;7.28;2.22;;;1.30;99.90;;;;;;5019547;28;20224;-81
2020/12/26 05:46:58;;;;;;;5.82;2.15;;;1.30;99.90;;;;;;5019104;28;20208;-82
2020/12/26 05:49:31;;;;;;;3.30;2.45;;;1.20;99.90;;;;;;5019153;28;20204;-80
2020/12/26 05:52:03;;;;;;;4.00;2.15;;;1.20;99.90;;;;;;5018650;28;20232;-81
2020/12/26 05:54:30;;;;;;;2.63;2.40;;;1.20;99.90;;;;;;5019166;28;20650;-80
2020/12/26 05:57:16;;;;;;;2.42;2.22;;;1.20;99.90;;;;;;5019313;28;20212;-81
2020/12/26 05:59:47;;;;;;;4.50;2.10;;;1.30;99.90;;;;;;5018016;28;20439;-82
2020/12/26 06:02:18;;;;;;;4.50;2.20;;;1.20;99.90;;;;;;5019222;28;20315;-82
2020/12/26 06:04:51;;;;;;;4.28;3.80;;;1.10;99.90;;;;;;5018837;28;20649;-80
2020/12/26 06:07:21;;;;;;;4.43;2.55;;;1.20;99.90;;;;;;5018630;28;20449;-80
2020/12/26 06:09:52;;;;;;;3.30;2.80;;;1.10;99.90;;;;;;5019158;28;20684;-80
2020/12/26 06:12:19;;;;;;;2.90;2.65;;;1.10;99.90;;;;;;5018827;28;20221;-81
2020/12/26 06:14:48;;;;;;;7.57;3.10;;;1.10;99.90;;;;;;5018806;28;20231;-81
2020/12/26 06:17:20;;;;;;;4.32;3.13;;;1.10;99.90;;;;;;5019011;28;20219;-82
2020/12/26 06:19:52;;;;;;;3.90;3.25;;;1.10;99.90;;;;;;5019014;28;20705;-82
2020/12/26 06:22:19;;;;;;;5.13;3.05;;;1.10;99.90;;;;;;5018270;28;20234;-81
2020/12/26 06:24:45;;;;;;;4.53;3.78;;;1.10;99.90;;;;;;5018269;28;20319;-80
2020/12/26 06:27:14;;;;;;;3.63;3.22;;;1.00;99.90;;;;;;5018241;28;20204;-81
2020/12/26 06:29:42;;;;;;;5.57;3.67;;;1.10;99.90;;;;;;5018571;28;20211;-81
2020/12/26 06:32:11;;;;;;;3.65;3.25;;;1.00;99.90;;;;;;5018289;28;20316;-80
2020/12/26 06:34:41;;;;;;;4.43;3.45;;;0.90;99.90;;;;;;5018438;28;20209;-81
2020/12/26 06:37:07;;;;;;;5.05;3.92;;;0.80;99.90;;;;;;5018281;28;20212;-81
2020/12/26 06:39:36;;;;;;;5.60;3.55;;;0.80;99.90;;;;;;5018505;28;20204;-81
2020/12/26 06:42:16;;;;;;;4.70;3.75;;;0.70;99.90;;;;;;5018367;28;20315;-80
2020/12/26 06:44:45;;;;;;;7.68;4.32;;;0.70;99.90;;;;;;5017728;28;20224;-82
2020/12/26 06:47:37;;;;;;;8.27;4.13;;;0.70;99.90;;;;;;5019047;28;20208;-81
2020/12/26 06:50:17;;;;;;;8.20;5.50;;;0.80;99.90;;;;;;5023410;28;20189;-80
2020/12/26 06:52:43;;;;;;;7.38;5.10;;;0.70;99.90;;;;;;5030603;28;20800;-81
2020/12/26 06:55:09;;;;;;;6.97;4.97;;;0.70;99.90;;;;;;5027133;28;20204;-81
2020/12/26 06:57:37;;;;;;;4.93;4.20;;;0.60;99.90;;;;;;5019371;28;20246;-82
2020/12/26 07:00:26;;;;;;;6.03;5.43;;;0.70;99.90;;;;;;5019379;28;20200;-82
2020/12/26 07:03:23;;;;;;;10.32;4.95;;;0.60;99.90;;;;;;5021428;28;20519;-81
2020/12/26 07:05:50;;;;;;;10.48;5.43;;;0.60;99.90;;;;;;5019337;28;20243;-81
2020/12/26 07:08:24;;;;;;;7.45;6.35;;;0.70;99.90;;;;;;5019049;28;20315;-82
2020/12/26 07:10:50;;;;;;;10.18;6.75;;;0.70;99.90;;;;;;5018433;28;20228;-82
2020/12/26 07:13:57;;;;;;;11.13;8.02;;;0.70;99.90;;;;;;5018500;28;20204;-81
2020/12/26 07:16:40;;;;;;;16.10;9.13;;;0.60;99.90;;;;;;5018150;28;20283;-82
2020/12/26 07:19:42;;;;;;;11.65;7.97;;;0.60;99.90;;;;;;5018899;28;20264;-81
2020/12/26 07:22:14;;;;;;;17.52;8.13;;;0.60;99.90;;;;;;5015360;28;20239;-82
2020/12/26 07:24:42;;;;;;;14.65;10.55;;;0.60;99.90;;;;;;5017663;28;20311;-82
2020/12/26 07:27:17;;;;;;;17.10;10.45;;;0.70;99.90;;;;;;5018498;28;20211;-81
2020/12/26 07:30:01;;;;;;;12.52;9.32;;;0.50;99.90;;;;;;5018650;28;20184;-81
2020/12/26 07:32:50;;;;;;;15.87;11.37;;;0.70;99.90;;;;;;5017934;28;20529;-81
2020/12/26 07:35:35;;;;;;;17.33;11.68;;;0.60;99.90;;;;;;5018265;28;20413;-83
2020/12/26 07:38:06;;;;;;;16.48;11.38;;;0.40;99.90;;;;;;5018089;28;20607;-81
2020/12/26 07:40:34;;;;;;;18.67;11.00;;;0.50;99.90;;;;;;5017324;28;20195;-82
2020/12/26 07:43:03;;;;;;;19.02;11.02;;;0.50;99.90;;;;;;5018238;28;20649;-81
2020/12/26 07:45:31;;;;;;;18.13;11.55;;;0.60;99.90;;;;;;5018384;28;20239;-81
2020/12/26 07:47:59;;;;;;;17.67;11.25;;;0.60;99.90;;;;;;5018819;28;20244;-81
2020/12/26 07:50:27;;;;;;;25.25;14.57;;;0.60;99.90;;;;;;5018907;28;20526;-81
2020/12/26 07:52:55;;;;;;;19.13;13.05;;;0.60;99.90;;;;;;5020515;28;20643;-81
2020/12/26 07:55:23;;;;;;;17.42;12.05;;;0.50;99.90;;;;;;5021182;28;20207;-82
2020/12/26 07:57:50;;;;;;;28.80;13.93;;;0.50;99.90;;;;;;5018999;28;20209;-82
2020/12/26 08:00:24;;;;;;;21.83;12.82;;;0.50;99.90;;;;;;5020351;28;20205;-82
2020/12/26 08:02:51;;;;;;;22.10;13.57;;;0.70;99.90;;;;;;5020378;28;20427;-81
2020/12/26 08:05:22;;;;;;;21.52;12.73;;;0.80;99.90;;;;;;5032688;28;20232;-81
2020/12/26 08:07:48;;;;;;;21.92;13.35;;;0.80;99.90;;;;;;5033327;28;20216;-83
2020/12/26 08:10:16;;;;;;;24.40;14.85;;;0.90;99.90;;;;;;5034964;28;20291;-81
2020/12/26 08:12:58;;;;;;;18.45;12.57;;;0.90;99.90;;;;;;5036090;28;20744;-81
2020/12/26 08:15:26;;;;;;;20.38;12.32;;;1.00;99.90;;;;;;5037085;28;20191;-81
2020/12/26 08:17:55;;;;;;;21.45;13.00;;;1.10;99.90;;;;;;5035886;28;20257;-81
2020/12/26 08:20:23;;;;;;;19.80;12.57;;;1.20;99.90;;;;;;5033873;28;20196;-81
2020/12/26 08:22:49;;;;;;;22.60;12.27;;;1.20;99.90;;;;;;5041214;22;20251;-85
2020/12/26 08:25:21;;;;;;;20.83;12.00;;;0.90;99.90;;;;;;5026945;28;20224;-86
2020/12/26 08:27:51;;;;;;;19.35;12.73;;;1.00;99.90;;;;;;5024650;28;20634;-86
2020/12/26 08:30:30;;;;;;;19.08;12.30;;;0.90;99.90;;;;;;5025160;28;20235;-86
2020/12/26 08:33:10;;;;;;;25.80;15.63;;;1.00;99.90;;;;;;5023607;28;20428;-86
2020/12/26 08:35:54;;;;;;;23.50;14.00;;;1.00;99.90;;;;;;5025399;28;20223;-85
2020/12/26 08:38:29;;;;;;;23.70;14.20;;;0.80;99.90;;;;;;5025583;28;20228;-84
2020/12/26 08:41:05;;;;;;;20.52;14.15;;;0.90;99.90;;;;;;5025310;28;20276;-86
2020/12/26 08:43:34;;;;;;;19.05;12.18;;;0.90;99.90;;;;;;5026343;28;20275;-86
2020/12/26 08:46:16;;;;;;;23.98;14.60;;;0.90;99.90;;;;;;5024799;28;20776;-85
2020/12/26 08:48:43;;;;;;;26.67;14.13;;;1.00;99.90;;;;;;5025441;28;20904;-87
2020/12/26 08:51:23;;;;;;;20.77;14.00;;;1.70;99.90;;;;;;5024631;28;20526;-86
2020/12/26 08:53:53;;;;;;;22.00;12.98;;;2.10;99.90;;;;;;5025283;28;20219;-86
2020/12/26 08:56:33;;;;;;;18.35;12.30;;;2.50;99.90;;;;;;5030408;28;20256;-85
2020/12/26 08:59:00;;;;;;;22.25;13.07;;;2.80;99.90;;;;;;5030380;28;20256;-86
2020/12/26 09:01:43;;;;;;;26.17;13.10;;;2.80;99.90;;;;;;5029608;28;20311;-86
2020/12/26 09:04:17;;;;;;;21.15;14.23;;;3.00;99.90;;;;;;5023775;28;20220;-86
2020/12/26 09:06:44;;;;;;;22.85;12.77;;;3.40;99.90;;;;;;5024441;28;20204;-86
2020/12/26 09:09:14;;;;;;;16.90;12.82;;;3.60;99.90;;;;;;5024889;28;20295;-87
2020/12/26 09:11:45;;;;;;;20.48;13.98;;;2.90;99.90;;;;;;5024146;28;20228;-85
2020/12/26 09:14:27;;;;;;;21.23;13.48;;;2.30;99.90;;;;;;5027438;28;20195;-87
2020/12/26 09:17:02;;;;;;;21.77;13.10;;;2.20;99.90;;;;;;5027876;28;20709;-86
2020/12/26 09:19:45;;;;;;;25.00;15.48;;;1.90;99.90;;;;;;5028695;28;20247;-86
2020/12/26 09:22:15;;;;;;;23.23;13.20;;;1.70;99.90;;;;;;5029585;28;20239;-86
2020/12/26 09:24:44;;;;;;;21.65;12.98;;;1.70;99.90;;;;;;5029786;28;20224;-87
2020/12/26 09:27:21;;;;;;;22.40;14.30;;;1.80;99.90;;;;;;5035650;28;20235;-86
2020/12/26 09:29:54;;;;;;;23.13;14.27;;;1.60;99.90;;;;;;5036068;28;20188;-84
2020/12/26 09:32:22;;;;;;;20.02;14.65;;;1.60;99.90;;;;;;5029701;28;20238;-86
2020/12/26 09:34:49;;;;;;;24.38;14.63;;;1.80;99.90;;;;;;5028455;28;20212;-86
2020/12/26 09:37:15;;;;;;;20.25;14.60;;;1.80;99.90;;;;;;5028120;28;20208;-86
2020/12/26 09:39:46;;;;;;;26.88;14.98;;;1.80;99.90;;;;;;5026924;28;20208;-86
2020/12/26 09:42:27;;;;;;;23.77;15.48;;;1.90;99.90;;;;;;5029492;28;20224;-86
2020/12/26 09:44:57;;;;;;;18.60;13.48;;;2.00;99.90;;;;;;5029205;28;20232;-86
2020/12/26 09:47:24;;;;;;;21.63;14.75;;;1.80;99.90;;;;;;5030464;28;20276;-86
2020/12/26 09:49:50;;;;;;;22.65;14.70;;;1.80;99.90;;;;;;5031959;28;20204;-85
2020/12/26 09:52:17;;;;;;;26.05;14.05;;;2.00;99.90;;;;;;5034166;28;20307;-85
2020/12/26 09:54:43;;;;;;;22.05;14.80;;;1.80;99.90;;;;;;5029342;28;20291;-86
2020/12/26 09:57:09;;;;;;;22.98;14.32;;;1.90;99.90;;;;;;5028034;28;20239;-86
2020/12/26 09:59:36;;;;;;;22.88;14.13;;;1.90;99.90;;;;;;5029313;28;20278;-87
2020/12/26 10:02:02;;;;;;;21.00;12.85;;;2.00;99.90;;;;;;5029369;28;20224;-85
2020/12/26 10:04:29;;;;;;;19.17;14.65;;;1.90;99.90;;;;;;5032329;28;20288;-86
2020/12/26 10:06:55;;;;;;;21.15;13.10;;;2.00;99.90;;;;;;5035249;28;20212;-86
2020/12/26 10:09:22;;;;;;;21.88;12.63;;;2.00;99.90;;;;;;5033314;28;20235;-86
2020/12/26 10:11:48;;;;;;;19.83;13.85;;;1.90;99.90;;;;;;5038020;28;20228;-85
2020/12/26 10:14:14;;;;;;;17.50;12.95;;;1.90;99.90;;;;;;5039355;28;20252;-86
2020/12/26 10:16:41;;;;;;;25.02;14.95;;;1.90;99.90;;;;;;5039835;28;20196;-86
2020/12/26 10:19:07;;;;;;;21.08;14.10;;;2.10;99.90;;;;;;5040095;28;20200;-86
2020/12/26 10:21:34;;;;;;;21.65;12.75;;;2.00;99.90;;;;;;5039943;28;20275;-87
2020/12/26 10:24:01;;;;;;;20.80;12.68;;;2.00;99.90;;;;;;5039160;28;20580;-86
2020/12/26 10:26:27;;;;;;;29.05;13.40;;;2.00;99.90;;;;;;5039287;28;20199;-85
2020/12/26 10:28:53;;;;;;;19.90;13.43;;;1.90;99.90;;;;;;5040613;28;20197;-86
2020/12/26 10:31:27;;;;;;;20.63;13.07;;;2.00;99.90;;;;;;5040196;28;20228;-85
2020/12/26 10:33:53;;;;;;;19.20;11.23;;;2.10;99.90;;;;;;5040241;28;20175;-85
2020/12/26 10:36:19;;;;;;;18.48;12.00;;;2.20;99.90;;;;;;5040220;28;20231;-86
2020/12/26 10:38:53;;;;;;;17.38;11.98;;;2.20;99.90;;;;;;5038569;28;20192;-85
2020/12/26 10:41:21;;;;;;;20.25;12.80;;;2.20;99.90;;;;;;5037837;28;20244;-86
2020/12/26 10:43:47;;;;;;;21.10;11.85;;;2.20;99.90;;;;;;5031722;28;20205;-86
2020/12/26 10:46:14;;;;;;;15.30;11.93;;;2.30;99.90;;;;;;5029816;28;20319;-87
2020/12/26 10:48:40;;;;;;;21.95;12.57;;;2.50;99.90;;;;;;5025772;28;20205;-86
2020/12/26 10:51:08;;;;;;;21.27;12.85;;;2.50;99.90;;;;;;5027033;28;20280;-86
2020/12/26 10:53:35;;;;;;;17.52;12.48;;;2.50;99.90;;;;;;5027094;28;20208;-86
2020/12/26 10:56:02;;;;;;;20.80;13.80;;;2.50;99.90;;;;;;5027694;28;20746;-86
2020/12/26 10:58:29;;;;;;;18.80;12.68;;;2.40;99.90;;;;;;5030189;28;20220;-86
2020/12/26 11:00:57;;;;;;;19.83;13.50;;;2.50;99.90;;;;;;5033429;28;20299;-85
2020/12/26 11:03:23;;;;;;;19.80;12.85;;;2.50;99.90;;;;;;5031961;28;20219;-84
2020/12/26 11:05:49;;;;;;;16.50;12.55;;;2.70;99.90;;;;;;5030423;28;20299;-84
2020/12/26 11:08:16;;;;;;;18.25;12.80;;;2.60;99.90;;;;;;5028728;28;20200;-86
2020/12/26 11:10:42;;;;;;;16.55;12.63;;;2.50;99.90;;;;;;5028286;28;20235;-85
2020/12/26 11:13:10;;;;;;;18.48;11.52;;;2.50;99.90;;;;;;5029821;28;20205;-86
2020/12/26 11:15:36;;;;;;;15.55;10.90;;;2.50;99.90;;;;;;5027785;28;20207;-86
2020/12/26 11:18:05;;;;;;;16.83;9.15;;;2.50;99.90;;;;;;5028477;28;20220;-85
2020/12/26 11:20:34;;;;;;;16.35;11.23;;;2.30;99.90;;;;;;5028996;28;20204;-86
2020/12/26 11:23:00;;;;;;;17.60;11.82;;;2.20;99.90;;;;;;5028229;28;20292;-86
2020/12/26 11:25:27;;;;;;;14.18;10.27;;;2.30;99.90;;;;;;5028381;28;20228;-86
2020/12/26 11:27:53;;;;;;;13.73;10.32;;;2.00;99.90;;;;;;5028042;28;20204;-86
2020/12/26 11:30:20;;;;;;;16.27;11.27;;;2.00;99.90;;;;;;5032960;28;20192;-85
2020/12/26 11:32:47;;;;;;;14.20;10.40;;;1.90;99.90;;;;;;5033709;28;20235;-85
2020/12/26 11:35:13;;;;;;;12.15;8.80;;;1.90;99.90;;;;;;5035737;28;20188;-85
2020/12/26 11:37:40;;;;;;;17.90;12.38;;;1.90;99.90;;;;;;5033474;28;20674;-86
2020/12/26 11:40:07;;;;;;;21.50;13.40;;;1.80;99.90;;;;;;5029083;28;20212;-85
2020/12/26 11:42:35;;;;;;;20.90;12.77;;;1.80;99.90;;;;;;5027289;28;20228;-86
2020/12/26 11:45:01;;;;;;;16.35;14.18;;;1.70;99.90;;;;;;5026177;28;20259;-86
2020/12/26 11:47:32;;;;;;;14.02;10.02;;;1.90;99.90;;;;;;5027876;28;20208;-84
2020/12/26 11:49:58;;;;;;;16.35;10.88;;;2.00;99.90;;;;;;5033918;28;20204;-85
2020/12/26 11:52:25;;;;;;;17.38;10.85;;;2.00;99.90;;;;;;5034002;28;20257;-83
2020/12/26 11:54:51;;;;;;;13.10;9.65;;;2.10;99.90;;;;;;5034413;28;20259;-86
2020/12/26 11:57:21;;;;;;;12.40;9.98;;;2.10;99.90;;;;;;5025283;28;20205;-86
2020/12/26 11:59:53;;;;;;;16.52;9.82;;;1.90;99.90;;;;;;5024323;28;20215;-87
2020/12/26 12:02:26;;;;;;;19.20;10.75;;;1.80;99.90;;;;;;5024660;28;20259;-85
2020/12/26 12:04:54;;;;;;;15.95;9.73;;;1.80;99.90;;;;;;5024649;28;20243;-87
2020/12/26 12:07:20;;;;;;;14.43;9.80;;;1.70;99.90;;;;;;5023778;28;20240;-87
2020/12/26 12:09:46;;;;;;;15.73;9.68;;;1.80;99.90;;;;;;5025020;28;20208;-86
2020/12/26 12:12:13;;;;;;;14.88;10.27;;;1.90;99.90;;;;;;5030137;28;20271;-86
2020/12/26 12:14:39;;;;;;;17.10;10.35;;;2.10;99.90;;;;;;5032194;28;20219;-86
2020/12/26 12:17:05;;;;;;;15.60;9.93;;;2.10;99.90;;;;;;5030926;28;20204;-87
2020/12/26 12:19:32;;;;;;;14.23;8.95;;;1.90;99.90;;;;;;5030838;28;20255;-87
2020/12/26 12:22:02;;;;;;;16.25;11.90;;;2.10;99.90;;;;;;5028175;28;20880;-87
2020/12/26 12:24:31;;;;;;;16.98;10.57;;;2.00;99.90;;;;;;5027780;28;20259;-87
2020/12/26 12:27:06;;;;;;;22.23;12.25;;;2.00;99.90;;;;;;5027096;28;20207;-87
2020/12/26 12:29:38;;;;;;;17.98;12.32;;;2.10;99.90;;;;;;5035681;28;20203;-87
2020/12/26 12:32:07;;;;;;;15.93;12.57;;;2.10;99.90;;;;;;5033153;28;20271;-86
2020/12/26 12:34:33;;;;;;;15.55;12.60;;;2.40;99.90;;;;;;5035835;28;20184;-85
2020/12/26 12:37:00;;;;;;;15.00;10.88;;;2.20;99.90;;;;;;5034973;28;20267;-86
2020/12/26 12:39:27;;;;;;;15.38;12.38;;;2.30;99.90;;;;;;5034162;28;20276;-87
2020/12/26 12:41:54;;;;;;;15.57;11.50;;;2.30;99.90;;;;;;5032136;28;20787;-87
2020/12/26 12:44:21;;;;;;;20.75;12.00;;;2.40;99.90;;;;;;5034942;28;20219;-86
2020/12/26 12:46:47;;;;;;;13.75;10.75;;;2.50;99.90;;;;;;5037286;28;20219;-86
2020/12/26 12:49:13;;;;;;;15.70;11.45;;;2.40;99.90;;;;;;5035133;28;20200;-87
2020/12/26 12:51:40;;;;;;;17.17;11.00;;;2.40;99.90;;;;;;5034314;28;20260;-86
2020/12/26 12:54:07;;;;;;;16.38;11.50;;;2.40;99.90;;;;;;5033772;28;20263;-86
2020/12/26 12:56:33;;;;;;;15.20;11.13;;;2.40;99.90;;;;;;5029556;28;20296;-87
2020/12/26 12:59:03;;;;;;;29.17;19.35;;;2.40;99.90;;;;;;5027481;28;20212;-86